createdAt,value
2022-08-01T00:04:53.705Z,3.16
2022-08-01T00:15:29.109Z,3.15
2022-08-01T00:26:29.815Z,3.15
2022-08-01T00:37:32.335Z,3.15
2022-08-01T00:48:33.466Z,3.14
2022-08-01T00:59:34.272Z,3.14
2022-08-01T01:10:34.963Z,3.14
2022-08-01T01:21:35.563Z,3.13
2022-08-01T01:32:37.200Z,3.13
2022-08-01T01:43:37.897Z,3.13
2022-08-01T01:54:46.589Z,3.10
2022-08-01T02:05:47.047Z,3.12
2022-08-01T02:16:47.885Z,3.11
2022-08-01T02:27:45.778Z,3.11
2022-08-01T02:38:38.177Z,3.11
2022-08-01T02:49:40.575Z,3.10
2022-08-01T03:00:39.818Z,3.10
2022-08-01T03:11:38.579Z,3.10
2022-08-01T03:22:40.240Z,3.10
2022-08-01T03:33:39.185Z,3.09
2022-08-01T03:44:40.705Z,3.09
2022-08-01T03:55:46.209Z,3.06
2022-08-01T04:06:46.915Z,3.09
2022-08-01T04:17:48.230Z,3.09
2022-08-01T04:28:48.926Z,3.09
2022-08-01T04:39:51.571Z,3.09
2022-08-01T04:50:51.299Z,3.10
2022-08-01T05:01:51.960Z,3.11
2022-08-01T05:12:54.564Z,3.14
2022-08-01T05:23:56.902Z,3.14
2022-08-01T05:34:58.997Z,3.15
2022-08-01T05:46:00.539Z,3.15
2022-08-01T05:57:00.230Z,3.15
2022-08-01T06:08:01.871Z,3.15
2022-08-01T06:19:05.308Z,3.20
2022-08-01T06:30:03.010Z,3.23
2022-08-01T06:41:02.532Z,3.22
2022-08-01T06:52:03.063Z,3.22
2022-08-01T07:03:05.284Z,3.26
2022-08-01T07:14:04.446Z,3.28
2022-08-01T07:25:03.945Z,3.28
2022-08-01T07:36:06.112Z,3.30
2022-08-01T07:47:08.324Z,3.32
2022-08-01T07:58:05.200Z,3.36
2022-08-01T08:09:05.924Z,3.34
2022-08-01T08:20:04.879Z,3.32
2022-08-01T08:31:07.312Z,3.33
2022-08-01T08:42:00.535Z,3.33
2022-08-01T08:53:01.943Z,3.33
2022-08-01T09:04:04.050Z,3.34
2022-08-01T09:15:05.172Z,3.34
2022-08-01T09:26:02.877Z,3.34
2022-08-01T09:36:38.325Z,3.34
2022-08-01T09:47:38.891Z,3.34
2022-08-01T09:58:40.629Z,3.34
2022-08-01T10:09:41.302Z,3.33
2022-08-01T10:20:38.639Z,3.34
2022-08-01T10:31:32.873Z,3.34
2022-08-01T10:42:34.421Z,3.34
2022-08-01T10:53:42.794Z,3.34
2022-08-01T11:04:38.579Z,3.34
2022-08-01T11:15:37.132Z,3.34
2022-08-01T11:26:42.300Z,3.34
2022-08-01T11:37:45.640Z,3.34
2022-08-01T11:48:38.982Z,3.34
2022-08-01T11:59:50.083Z,3.34
2022-08-01T12:10:46.959Z,3.34
2022-08-01T12:21:34.865Z,3.34
2022-08-01T12:32:07.903Z,3.34
2022-08-01T12:42:52.698Z,3.35
2022-08-01T12:53:40.257Z,3.34
2022-08-01T13:04:30.262Z,3.34
2022-08-01T13:15:17.638Z,3.34
2022-08-01T13:26:01.956Z,3.36
2022-08-01T13:36:49.026Z,3.34
2022-08-01T13:48:03.368Z,3.34
2022-08-01T13:58:34.097Z,3.34
2022-08-01T14:09:32.260Z,3.34
2022-08-01T14:20:24.610Z,3.35
2022-08-01T14:31:11.706Z,3.34
2022-08-01T14:41:45.846Z,3.35
2022-08-01T14:52:36.919Z,3.34
2022-08-01T15:03:20.622Z,3.34
2022-08-01T15:14:11.586Z,3.34
2022-08-01T15:24:44.959Z,3.34
2022-08-01T15:35:21.995Z,3.34
2022-08-01T15:45:56.943Z,3.35
2022-08-01T15:56:52.693Z,3.33
2022-08-01T16:07:27.813Z,3.36
2022-08-01T16:18:17.736Z,3.37
2022-08-01T16:28:52.169Z,3.36
2022-08-01T16:39:25.263Z,3.34
2022-08-01T16:50:18.249Z,3.34
2022-08-01T17:01:58.123Z,3.36
2022-08-01T17:12:07.968Z,3.35
2022-08-01T17:23:03.873Z,3.33
2022-08-01T17:34:00.735Z,3.32
2022-08-01T17:44:54.256Z,3.32
2022-08-01T17:55:53.992Z,3.31
2022-08-01T18:06:58.440Z,3.30
2022-08-01T18:17:49.882Z,3.29
2022-08-01T18:28:46.538Z,3.28
2022-08-01T18:39:44.609Z,3.27
2022-08-01T18:50:25.736Z,3.27
2022-08-01T19:01:24.045Z,3.26
2022-08-01T19:12:23.883Z,3.26
2022-08-01T19:23:22.962Z,3.25
2022-08-01T19:34:18.662Z,3.25
2022-08-01T19:45:17.964Z,3.25
2022-08-01T19:56:13.304Z,3.24
2022-08-01T20:07:13.548Z,3.24
2022-08-01T20:18:12.444Z,3.23
2022-08-01T20:29:12.083Z,3.23
2022-08-01T20:40:12.299Z,3.22
2022-08-01T20:51:12.877Z,3.22
2022-08-01T21:02:14.225Z,3.22
2022-08-01T21:13:19.040Z,3.21
2022-08-01T21:24:18.838Z,3.21
2022-08-01T21:35:15.968Z,3.20
2022-08-01T21:46:15.968Z,3.20
2022-08-01T21:57:17.901Z,3.19
2022-08-01T22:08:16.388Z,3.19
2022-08-01T22:19:32.423Z,3.19
2022-08-01T22:30:23.474Z,3.18
2022-08-01T22:41:28.429Z,3.18
2022-08-01T22:52:24.598Z,3.17
2022-08-01T23:03:25.320Z,3.17
2022-08-01T23:14:20.538Z,3.17
2022-08-01T23:25:22.296Z,3.17
2022-08-01T23:36:23.576Z,3.16
2022-08-01T23:47:25.253Z,3.16
2022-08-01T23:58:23.828Z,3.15
